KFCS/FCS METAR and TAF weather

Enter ICAO airport designator
Station Type Date Time Source
KFCS METAR 2020/07/02 19:03 UTC NOAA

KFCS 021903Z AUTO 17015G21KT 10SM FEW200 32/M02 A3011 RMK AO2 WSHFT 1859 SLP124 $


Station Type Date Time Source
KFCS Decoded METAR 2020/07/02 19:03 UTC NOAA

Fort Carson, CO, United States (KFCS) 38-42N 104-46W 1789M
Jul 02, 2020 - 03:03 PM EDT / 2020.07.02 1903 UTC
Wind: from the S (170 degrees) at 17 MPH (15 KT) gusting to 24 MPH (21 KT):0
Visibility: 10 mile(s):0
Sky conditions: mostly clear
Temperature: 89 F (32 C)
Dew Point: 28 F (-2 C)
Relative Humidity: 11%
Pressure (altimeter): 30.11 in. Hg (1019 hPa)
ob: KFCS 021903Z AUTO 17015G21KT 10SM FEW200 32/M02 A3011 RMK AO2 WSHFT 1859 SLP124
cycle: 19

Station Type Date Time Source
KFCS TAF 2020/07/02 13:06 UTC NOAA

TAF KFCS 021300Z 0213/0319 33007KT 9999 FEW014 QNH3016INS
TEMPO 0218/0220 22010G15KT
BECMG 0300/0301 17008KT 9999 FEW200 QNH3005INS
TEMPO 0301/0305 15015G25KT VCTS BKN090CB
BECMG 0306/0307 30006KT 9999 FEW190 QNH3014INS
BECMG 0318/0319 16015G25KT 8000 -TSRA SCT090CB QNH3017INS TX33/0221Z TN12/0213Z

Example: see airport list